createdAt,value
2018-05-01T00:00:30.466Z,33.42
2018-05-01T00:01:30.490Z,33.13
2018-05-01T00:02:30.225Z,33.51
2018-05-01T00:03:30.522Z,33.13
2018-05-01T00:04:30.541Z,33.7
2018-05-01T00:05:30.572Z,33.61
2018-05-01T00:06:30.579Z,33.61
2018-05-01T00:07:30.614Z,33.61
2018-05-01T00:08:30.630Z,33.7
2018-05-01T00:09:30.656Z,33.9
2018-05-01T00:10:30.865Z,33.9
2018-05-01T00:11:30.425Z,33.51
2018-05-01T00:12:30.427Z,33.7
2018-05-01T00:13:30.730Z,33.99
2018-05-01T00:14:30.747Z,34.09
2018-05-01T00:15:30.773Z,33.9
2018-05-01T00:16:30.794Z,33.99
2018-05-01T00:17:30.838Z,33.7
2018-05-01T00:18:30.837Z,33.8
2018-05-01T00:19:30.860Z,33.59
2018-05-01T00:20:30.606Z,33.59
2018-05-01T00:21:30.918Z,33.59
2018-05-01T00:22:30.939Z,33.5
2018-05-01T00:23:30.959Z,33.69
2018-05-01T00:24:30.978Z,33.69
2018-05-01T00:25:30.983Z,33.78
2018-05-01T00:26:30.739Z,33.4
2018-05-01T00:27:31.030Z,33.31
2018-05-01T00:28:31.073Z,33.31
2018-05-01T00:29:30.802Z,33.5
2018-05-01T00:30:30.820Z,33.5
2018-05-01T00:31:30.850Z,33.4
2018-05-01T00:32:31.148Z,33.59
2018-05-01T00:33:31.170Z,33.21
2018-05-01T00:34:30.899Z,32.92
2018-05-01T00:35:30.914Z,32.92
2018-05-01T00:36:31.231Z,33.21
2018-05-01T00:37:31.250Z,33.21
2018-05-01T00:38:31.273Z,33.31
2018-05-01T00:39:31.298Z,33.11
2018-05-01T00:40:31.314Z,33.21
2018-05-01T00:41:31.318Z,33.4
2018-05-01T00:42:31.342Z,33.4
2018-05-01T00:43:31.362Z,33.48
2018-05-01T00:44:31.409Z,33.4
2018-05-01T00:45:31.134Z,33.5
2018-05-01T00:46:31.448Z,33.59
2018-05-01T00:47:31.445Z,33.39
2018-05-01T00:48:31.468Z,33.39
2018-05-01T00:49:31.208Z,33.69
2018-05-01T00:50:31.529Z,33.58
2018-05-01T00:51:31.639Z,33.67
2018-05-01T00:52:31.562Z,33.67
2018-05-01T00:53:31.578Z,33.48
2018-05-01T00:54:31.610Z,33.59
2018-05-01T00:55:31.347Z,33.58
2018-05-01T00:56:31.632Z,33.67
2018-05-01T00:57:31.381Z,33.58
2018-05-01T00:58:31.694Z,33.77
2018-05-01T00:59:31.416Z,33.67
2018-05-01T01:00:31.738Z,33.67
2018-05-01T01:01:31.751Z,33.96
2018-05-01T01:02:31.760Z,33.67
2018-05-01T01:03:31.509Z,34.06
2018-05-01T01:04:31.819Z,33.86
2018-05-01T01:05:31.544Z,33.67
2018-05-01T01:06:31.863Z,33.77
2018-05-01T01:07:31.862Z,34.06
2018-05-01T01:08:31.909Z,34.25
2018-05-01T01:09:31.925Z,33.67
2018-05-01T01:10:31.932Z,33.86
2018-05-01T01:11:31.966Z,34.06
2018-05-01T01:12:31.982Z,34.06
2018-05-01T01:13:31.995Z,34.06
2018-05-01T01:14:32.014Z,34.15
2018-05-01T01:15:32.030Z,34.44
2018-05-01T01:16:32.137Z,34.34
2018-05-01T01:17:32.076Z,34.82
2018-05-01T01:18:32.098Z,34.53
2018-05-01T01:19:32.118Z,34.63
2018-05-01T01:20:32.139Z,34.82
2018-05-01T01:21:31.892Z,34.82
2018-05-01T01:22:32.179Z,34.73
2018-05-01T01:23:32.201Z,35.02
2018-05-01T01:24:32.236Z,34.73
2018-05-01T01:25:32.260Z,35.02
2018-05-01T01:26:32.280Z,34.92
2018-05-01T01:27:32.280Z,34.92
2018-05-01T01:28:32.313Z,34.82
2018-05-01T01:29:32.338Z,35.21
2018-05-01T01:30:32.343Z,35.21
2018-05-01T01:31:32.381Z,35.11
2018-05-01T01:32:32.386Z,35.11
2018-05-01T01:33:32.416Z,35.21
2018-05-01T01:34:32.441Z,35.3
2018-05-01T01:35:32.468Z,35.3
2018-05-01T01:36:32.258Z,35.11
2018-05-01T01:37:32.493Z,35
2018-05-01T01:38:32.509Z,35.4
2018-05-01T01:39:32.532Z,35.19
2018-05-01T01:40:32.548Z,34.71
2018-05-01T01:41:32.585Z,34.73
2018-05-01T01:42:32.587Z,35.19
2018-05-01T01:43:32.610Z,35.19
2018-05-01T01:44:32.626Z,35.19
2018-05-01T01:45:32.969Z,35.28
2018-05-01T01:46:32.943Z,35
2018-05-01T01:47:33.024Z,35.1
2018-05-01T01:48:32.562Z,35.1
2018-05-01T01:49:32.835Z,35.1
2018-05-01T01:50:32.929Z,35
2018-05-01T01:51:32.869Z,34.71
2018-05-01T01:52:33.039Z,34.81
2018-05-01T01:53:33.102Z,34.81
2018-05-01T01:54:33.040Z,34.81
2018-05-01T01:55:32.719Z,34.9
2018-05-01T01:56:32.752Z,34.9
2018-05-01T01:57:33.193Z,35
2018-05-01T01:58:33.237Z,35.08
2018-05-01T01:59:33.156Z,35.08
2018-05-01T02:00:32.881Z,34.98
2018-05-01T02:01:33.173Z,35.17
2018-05-01T02:02:32.881Z,35.08
2018-05-01T02:03:33.204Z,35.17
2018-05-01T02:04:33.250Z,35.19
2018-05-01T02:05:33.298Z,35.36
2018-05-01T02:06:33.268Z,35
2018-05-01T02:07:33.337Z,35.46
2018-05-01T02:08:33.449Z,35.46
2018-05-01T02:09:33.328Z,35.55
2018-05-01T02:10:33.367Z,35.84
2018-05-01T02:11:33.415Z,35.75
2018-05-01T02:12:33.497Z,36.24
2018-05-01T02:13:33.230Z,36.13
2018-05-01T02:14:33.249Z,35.94
2018-05-01T02:15:33.276Z,35.94
2018-05-01T02:16:33.452Z,36.51
2018-05-01T02:17:33.458Z,36.04
2018-05-01T02:18:33.529Z,36.42
2018-05-01T02:19:33.501Z,36.22
2018-05-01T02:20:33.560Z,35.94
2018-05-01T02:21:33.575Z,36.13
2018-05-01T02:22:33.680Z,36.13
2018-05-01T02:23:33.529Z,35.94
2018-05-01T02:24:33.626Z,35.94
2018-05-01T02:25:33.659Z,35.84
2018-05-01T02:26:33.881Z,35.84
2018-05-01T02:27:33.657Z,36.22
2018-05-01T02:28:33.562Z,36.42
2018-05-01T02:29:33.637Z,35.84
2018-05-01T02:30:33.579Z,35.94
2018-05-01T02:31:33.720Z,35.94
2018-05-01T02:32:33.653Z,35.84
2018-05-01T02:33:33.634Z,36.13
2018-05-01T02:34:33.669Z,36.13
2018-05-01T02:35:33.679Z,36.13
2018-05-01T02:36:33.980Z,36.13
2018-05-01T02:37:33.724Z,36.13
2018-05-01T02:38:33.750Z,36.13
2018-05-01T02:39:33.755Z,35.94
2018-05-01T02:40:33.776Z,35.94
2018-05-01T02:41:33.793Z,36.32
2018-05-01T02:42:33.817Z,36.51
2018-05-01T02:43:33.851Z,36.32
2018-05-01T02:44:33.857Z,36.61
2018-05-01T02:45:33.871Z,36.71
2018-05-01T02:46:33.978Z,36.61
2018-05-01T02:47:33.933Z,35.65
2018-05-01T02:48:34.070Z,36.13
2018-05-01T02:49:34.299Z,36.71
2018-05-01T02:50:34.190Z,36.71
2018-05-01T02:51:33.990Z,36.71
2018-05-01T02:52:34.070Z,36.61
2018-05-01T02:53:33.769Z,36.71
2018-05-01T02:54:34.056Z,36.11
2018-05-01T02:55:34.103Z,36.71
2018-05-01T02:56:34.092Z,36.61
2018-05-01T02:57:34.125Z,36.69
2018-05-01T02:58:34.137Z,36.13
2018-05-01T02:59:34.154Z,36.02
2018-05-01T03:00:34.169Z,36.79
2018-05-01T03:01:34.206Z,36.02
2018-05-01T03:02:34.229Z,36.69
2018-05-01T03:03:34.232Z,36.69
2018-05-01T03:04:34.271Z,36.59
2018-05-01T03:05:33.993Z,36.69
2018-05-01T03:06:34.365Z,36.79
2018-05-01T03:07:34.318Z,36.49
2018-05-01T03:08:34.349Z,37.07
2018-05-01T03:09:34.356Z,37.07
2018-05-01T03:10:34.384Z,36.88
2018-05-01T03:11:34.459Z,36.4
2018-05-01T03:12:34.413Z,36.59
2018-05-01T03:13:34.449Z,36.69
2018-05-01T03:14:34.467Z,37.07
2018-05-01T03:15:34.480Z,37.07
2018-05-01T03:16:34.506Z,37.65
2018-05-01T03:17:34.523Z,37.07
2018-05-01T03:18:34.536Z,37.65
2018-05-01T03:19:34.553Z,36.88
2018-05-01T03:20:34.305Z,36.88
2018-05-01T03:21:34.593Z,37.65
2018-05-01T03:22:34.628Z,37.36
2018-05-01T03:23:34.636Z,36.88
2018-05-01T03:24:34.652Z,36.69
2018-05-01T03:25:34.668Z,37.36
2018-05-01T03:26:34.713Z,37.84
2018-05-01T03:27:34.733Z,37.16
2018-05-01T03:28:34.731Z,37.45
2018-05-01T03:29:34.748Z,37.26
2018-05-01T03:30:34.768Z,37.55
2018-05-01T03:31:34.804Z,37.26
2018-05-01T03:32:34.531Z,37.26
2018-05-01T03:33:34.841Z,37.26
2018-05-01T03:34:34.850Z,37.26
2018-05-01T03:35:34.591Z,37.65
2018-05-01T03:36:34.911Z,37.36
2018-05-01T03:37:34.916Z,37.65
2018-05-01T03:38:34.938Z,37.93
2018-05-01T03:39:34.949Z,37.84
2018-05-01T03:40:34.980Z,37.93
2018-05-01T03:41:34.998Z,37.55
2018-05-01T03:42:35.022Z,37.55
2018-05-01T03:43:35.038Z,37.55
2018-05-01T03:44:35.060Z,37.74
2018-05-01T03:45:35.080Z,37.55
2018-05-01T03:46:35.102Z,37.65
2018-05-01T03:47:35.106Z,37.84
2018-05-01T03:48:35.123Z,37.84
2018-05-01T03:49:35.155Z,38.03
2018-05-01T03:50:35.158Z,37.45
2018-05-01T03:51:35.203Z,37.74
2018-05-01T03:52:35.218Z,37.26
2018-05-01T03:53:35.229Z,36.88
2018-05-01T03:54:35.256Z,37.36
2018-05-01T03:55:35.327Z,36.96
2018-05-01T03:56:35.275Z,37.55
2018-05-01T03:57:35.305Z,37.82
2018-05-01T03:58:35.317Z,38.03
2018-05-01T03:59:35.357Z,37.65
2018-05-01T04:00:35.362Z,37.74
2018-05-01T04:01:35.103Z,37.45
2018-05-01T04:02:35.420Z,37.36
2018-05-01T04:03:35.418Z,37.55
2018-05-01T04:04:35.442Z,37.24
2018-05-01T04:05:35.472Z,37.43
2018-05-01T04:06:35.484Z,37.63
2018-05-01T04:07:35.515Z,37.05
2018-05-01T04:08:35.535Z,37.63
2018-05-01T04:09:35.536Z,37.43
2018-05-01T04:10:35.555Z,37.24
2018-05-01T04:11:35.575Z,37.45
2018-05-01T04:12:35.597Z,36.96
2018-05-01T04:13:35.612Z,37.45
2018-05-01T04:14:35.637Z,37.05
2018-05-01T04:15:35.975Z,37.36
2018-05-01T04:16:36.060Z,37.24
2018-05-01T04:17:35.915Z,37.15
2018-05-01T04:18:36.169Z,37.34
2018-05-01T04:19:35.553Z,37.24
2018-05-01T04:20:35.970Z,37.34
2018-05-01T04:21:35.987Z,37.34
2018-05-01T04:22:35.893Z,37.15
2018-05-01T04:23:36.216Z,37.63
2018-05-01T04:24:35.927Z,38.01
2018-05-01T04:25:35.852Z,38.01
2018-05-01T04:26:35.946Z,37.63
2018-05-01T04:27:36.356Z,38.01
2018-05-01T04:28:36.238Z,38.2
2018-05-01T04:29:35.892Z,37.53
2018-05-01T04:30:36.420Z,37.92
2018-05-01T04:31:36.017Z,37.92
2018-05-01T04:32:36.247Z,38.1
2018-05-01T04:33:35.985Z,37.43
2018-05-01T04:34:36.510Z,38.01
2018-05-01T04:35:36.376Z,38.01
2018-05-01T04:36:36.340Z,38.1
2018-05-01T04:37:36.591Z,38.01
2018-05-01T04:38:36.672Z,38.3
2018-05-01T04:39:36.388Z,38.3
2018-05-01T04:40:36.415Z,37.63
2018-05-01T04:41:36.281Z,38.39
2018-05-01T04:42:36.750Z,38.1
2018-05-01T04:43:36.409Z,38.2
2018-05-01T04:44:36.427Z,38.49
2018-05-01T04:45:36.625Z,38.3
2018-05-01T04:46:36.495Z,38.39
2018-05-01T04:47:36.822Z,38.3
2018-05-01T04:48:36.348Z,38.3
2018-05-01T04:49:36.661Z,38.68
2018-05-01T04:50:36.583Z,38.59
2018-05-01T04:51:36.712Z,38.2
2018-05-01T04:52:36.765Z,38.3
2018-05-01T04:53:36.402Z,38.49
2018-05-01T04:54:36.427Z,38.49
2018-05-01T04:55:36.435Z,38.3
2018-05-01T04:56:36.469Z,38.59
2018-05-01T04:57:36.503Z,38.59
2018-05-01T04:58:36.856Z,38.59
2018-05-01T04:59:36.231Z,38.49
2018-05-01T05:00:36.546Z,38.39
2018-05-01T05:01:36.571Z,38.39
2018-05-01T05:02:36.565Z,38.2
2018-05-01T05:03:36.583Z,38.39
2018-05-01T05:04:36.604Z,38.39
2018-05-01T05:05:36.631Z,38.39
2018-05-01T05:06:36.658Z,38.3
2018-05-01T05:07:36.719Z,38.3
2018-05-01T05:08:36.414Z,38.59
2018-05-01T05:09:36.521Z,38.59
2018-05-01T05:10:36.742Z,38.78
2018-05-01T05:11:36.740Z,38.78
2018-05-01T05:12:36.765Z,38.96
2018-05-01T05:13:36.801Z,38.68
2018-05-01T05:14:36.805Z,39.06
2018-05-01T05:15:36.844Z,38.87
2018-05-01T05:16:36.850Z,38.59
2018-05-01T05:17:36.912Z,38.39
2018-05-01T05:18:36.884Z,38.3
2018-05-01T05:19:36.932Z,38.59
2018-05-01T05:20:36.929Z,38.39
2018-05-01T05:21:36.950Z,38.39
2018-05-01T05:22:37.004Z,38.3
2018-05-01T05:23:36.990Z,38.2
2018-05-01T05:24:36.712Z,38.39
2018-05-01T05:25:37.030Z,38.3
2018-05-01T05:26:37.053Z,38.1
2018-05-01T05:27:36.825Z,38.39
2018-05-01T05:28:36.809Z,38.49
2018-05-01T05:29:37.086Z,38.59
2018-05-01T05:30:37.112Z,38.59
2018-05-01T05:31:37.142Z,38.39
2018-05-01T05:32:36.889Z,38.39
2018-05-01T05:33:37.165Z,38.49
2018-05-01T05:34:37.199Z,38.68
2018-05-01T05:35:37.212Z,38.39
2018-05-01T05:36:37.233Z,38.59
2018-05-01T05:37:37.244Z,38.68
2018-05-01T05:38:37.285Z,38.39
2018-05-01T05:39:37.301Z,38.2
2018-05-01T05:40:37.309Z,38.49
2018-05-01T05:41:37.321Z,38.2
2018-05-01T05:42:37.066Z,38.37
2018-05-01T05:43:37.386Z,38.39
2018-05-01T05:44:37.422Z,38.2
2018-05-01T05:45:37.422Z,38.39
2018-05-01T05:46:37.432Z,38.2
2018-05-01T05:47:37.456Z,38.37
2018-05-01T05:48:37.473Z,38.47
2018-05-01T05:49:37.482Z,38.47
2018-05-01T05:50:37.499Z,38.47
2018-05-01T05:51:37.533Z,38.56
2018-05-01T05:52:37.529Z,38.76
2018-05-01T05:53:37.556Z,38.66
2018-05-01T05:54:37.575Z,38.85
2018-05-01T05:55:37.590Z,38.85
2018-05-01T05:56:37.616Z,38.76
2018-05-01T05:57:37.641Z,38.85
2018-05-01T05:58:37.375Z,38.76
2018-05-01T05:59:37.672Z,38.95
2018-05-01T06:00:37.691Z,39.14
2018-05-01T06:01:37.727Z,39.14
2018-05-01T06:02:37.447Z,38.66
2018-05-01T06:03:37.762Z,38.95
2018-05-01T06:04:37.783Z,38.85
2018-05-01T06:05:37.798Z,38.66
2018-05-01T06:06:37.798Z,38.95
2018-05-01T06:07:37.911Z,39.04
2018-05-01T06:08:38.066Z,39.04
2018-05-01T06:09:37.892Z,39.23
2018-05-01T06:10:37.881Z,38.85
2018-05-01T06:11:37.912Z,38.85
2018-05-01T06:12:37.921Z,38.56
2018-05-01T06:13:38.090Z,39.14
2018-05-01T06:14:37.693Z,39.14
2018-05-01T06:15:37.995Z,38.95
2018-05-01T06:16:38.010Z,39.14
2018-05-01T06:17:38.032Z,39.23
2018-05-01T06:18:37.766Z,39.33
2018-05-01T06:19:38.079Z,39.43
2018-05-01T06:20:38.091Z,39.62
2018-05-01T06:21:37.819Z,39.52
2018-05-01T06:22:37.841Z,39.72
2018-05-01T06:23:38.154Z,39.72
2018-05-01T06:24:38.151Z,39.62
2018-05-01T06:25:38.187Z,40
2018-05-01T06:26:38.199Z,40
2018-05-01T06:27:37.942Z,39.81
2018-05-01T06:28:38.235Z,39.9
2018-05-01T06:29:38.246Z,40
2018-05-01T06:30:38.281Z,40.09
2018-05-01T06:31:38.277Z,39.72
2018-05-01T06:32:38.321Z,39.81
2018-05-01T06:33:38.051Z,39.9
2018-05-01T06:34:38.346Z,39.9
2018-05-01T06:35:38.377Z,40
2018-05-01T06:36:38.400Z,39.81
2018-05-01T06:37:38.418Z,39.9
2018-05-01T06:38:38.141Z,39.81
2018-05-01T06:39:38.454Z,39.23
2018-05-01T06:40:38.478Z,39.04
2018-05-01T06:41:38.483Z,38.66
2018-05-01T06:42:38.515Z,38.66
2018-05-01T06:43:38.516Z,38.95
2018-05-01T06:44:38.250Z,38.76
2018-05-01T06:45:38.278Z,39.04
2018-05-01T06:46:38.580Z,38.66
2018-05-01T06:47:38.594Z,38.56
2018-05-01T06:48:38.633Z,38.66
2018-05-01T06:49:38.628Z,38.85
2018-05-01T06:50:38.672Z,38.95
2018-05-01T06:51:38.668Z,39.04
2018-05-01T06:52:38.409Z,38.56
2018-05-01T06:53:38.721Z,38.95
2018-05-01T06:54:38.454Z,38.66
2018-05-01T06:55:38.457Z,38.66
2018-05-01T06:56:38.508Z,38.56
2018-05-01T06:57:38.503Z,38.66
2018-05-01T06:58:38.518Z,38.37
2018-05-01T06:59:38.550Z,38.2
2018-05-01T07:00:38.567Z,38.59
2018-05-01T07:01:38.855Z,38.49
2018-05-01T07:02:38.606Z,38.1
2018-05-01T07:03:38.896Z,38.49
2018-05-01T07:04:38.723Z,37.72
2018-05-01T07:05:38.949Z,38.2
2018-05-01T07:06:38.962Z,38.3
2018-05-01T07:07:38.703Z,38.3
2018-05-01T07:08:38.987Z,37.72
2018-05-01T07:09:38.728Z,38.1
2018-05-01T07:10:39.106Z,37.92
2018-05-01T07:11:39.040Z,37.82
2018-05-01T07:12:38.794Z,37.65
2018-05-01T07:13:39.083Z,38.2
2018-05-01T07:14:38.830Z,38.01
2018-05-01T07:15:39.140Z,38.03
2018-05-01T07:16:38.865Z,37.26
2018-05-01T07:17:39.162Z,37.26
2018-05-01T07:18:39.176Z,37.26
2018-05-01T07:19:39.207Z,37.26
2018-05-01T07:20:39.233Z,37.65
2018-05-01T07:21:39.235Z,37.16
2018-05-01T07:22:39.249Z,37.84
2018-05-01T07:23:39.347Z,37.55
2018-05-01T07:24:39.314Z,37.74
2018-05-01T07:25:39.308Z,36.88
2018-05-01T07:26:39.352Z,36.79
2018-05-01T07:27:39.069Z,37.45
2018-05-01T07:28:39.147Z,37.57
2018-05-01T07:29:39.385Z,37.38
2018-05-01T07:30:39.418Z,37.38
2018-05-01T07:31:39.443Z,37.36
2018-05-01T07:32:39.453Z,37.38
2018-05-01T07:33:39.532Z,37.09
2018-05-01T07:34:39.498Z,36.71
2018-05-01T07:35:39.686Z,36.61
2018-05-01T07:36:39.544Z,36.8
2018-05-01T07:37:39.566Z,36.32
2018-05-01T07:38:39.580Z,35.94
2018-05-01T07:39:39.324Z,35.94
2018-05-01T07:40:39.602Z,36.22
2018-05-01T07:41:39.708Z,36.22
2018-05-01T07:42:39.645Z,36.04
2018-05-01T07:43:39.718Z,36.13
2018-05-01T07:44:39.709Z,36.13
2018-05-01T07:45:39.713Z,36.13
2018-05-01T07:46:39.724Z,36.04
2018-05-01T07:47:39.470Z,35.94
2018-05-01T07:48:39.759Z,36.22
2018-05-01T07:49:39.792Z,35.94
2018-05-01T07:50:39.802Z,35.55
2018-05-01T07:51:39.829Z,35.38
2018-05-01T07:52:39.835Z,35.38
2018-05-01T07:53:39.877Z,35.36
2018-05-01T07:54:39.874Z,35.48
2018-05-01T07:55:39.617Z,35.48
2018-05-01T07:56:39.922Z,35.19
2018-05-01T07:57:39.934Z,35.1
2018-05-01T07:58:40.008Z,35
2018-05-01T07:59:39.979Z,35.38
2018-05-01T08:00:39.999Z,34.81
2018-05-01T08:01:40.022Z,34.61
2018-05-01T08:02:40.043Z,34.9
2018-05-01T08:03:40.176Z,34.61
2018-05-01T08:04:40.091Z,34.81
2018-05-01T08:05:40.093Z,34.61
2018-05-01T08:06:40.116Z,35.02
2018-05-01T08:07:40.153Z,34.81
2018-05-01T08:08:40.221Z,34.61
2018-05-01T08:09:40.181Z,34.33
2018-05-01T08:10:40.209Z,34.53
2018-05-01T08:11:40.443Z,34.06
2018-05-01T08:12:40.408Z,34.25
2018-05-01T08:13:41.288Z,33.96
2018-05-01T08:14:41.025Z,34.06
2018-05-01T08:15:40.616Z,33.96
2018-05-01T08:16:40.376Z,33.96
2018-05-01T08:17:40.680Z,34.34
2018-05-01T08:18:40.508Z,34.06
2018-05-01T08:19:40.519Z,33.67
2018-05-01T08:20:41.025Z,33.86
2018-05-01T08:21:40.727Z,33.67
2018-05-01T08:22:40.750Z,33.96
2018-05-01T08:23:40.829Z,33.77
2018-05-01T08:24:40.384Z,33.67
2018-05-01T08:25:40.721Z,33.67
2018-05-01T08:26:41.288Z,33.86
2018-05-01T08:27:40.838Z,33.69
2018-05-01T08:28:41.179Z,33.39
2018-05-01T08:29:40.960Z,33.31
2018-05-01T08:30:40.568Z,33.39
2018-05-01T08:31:40.600Z,33.4
2018-05-01T08:32:41.118Z,32.92
2018-05-01T08:33:41.179Z,32.34
2018-05-01T08:34:40.934Z,32.54
2018-05-01T08:35:40.818Z,31.56
2018-05-01T08:36:41.201Z,31.75
2018-05-01T08:37:41.130Z,31.75
2018-05-01T08:38:40.767Z,31.95
2018-05-01T08:39:40.893Z,32.04
2018-05-01T08:40:40.816Z,32.14
2018-05-01T08:41:40.833Z,32.23
2018-05-01T08:42:40.839Z,32.14
2018-05-01T08:43:40.860Z,32.23
2018-05-01T08:44:40.901Z,31.85
2018-05-01T08:45:40.624Z,31.56
2018-05-01T08:46:40.922Z,31.85
2018-05-01T08:47:40.942Z,31.85
2018-05-01T08:48:40.692Z,31.56
2018-05-01T08:49:41.049Z,31.75
2018-05-01T08:50:41.026Z,31.66
2018-05-01T08:51:40.753Z,31.56
2018-05-01T08:52:41.058Z,31.37
2018-05-01T08:53:41.080Z,31.46
2018-05-01T08:54:41.103Z,31.85
2018-05-01T08:55:41.124Z,31.95
2018-05-01T08:56:41.139Z,31.18
2018-05-01T08:57:41.146Z,30.7
2018-05-01T08:58:40.888Z,30.04
2018-05-01T08:59:41.254Z,30.12
2018-05-01T09:00:41.217Z,29.74
2018-05-01T09:01:41.222Z,29.93
2018-05-01T09:02:41.243Z,29.55
2018-05-01T09:03:41.286Z,29.83
2018-05-01T09:04:41.305Z,29.64
2018-05-01T09:05:41.042Z,29.27
2018-05-01T09:06:41.345Z,29.47
2018-05-01T09:07:41.350Z,29.47
2018-05-01T09:08:41.090Z,29.08
2018-05-01T09:09:41.397Z,29.37
2018-05-01T09:10:41.138Z,29.08
2018-05-01T09:11:41.437Z,28.7
2018-05-01T09:12:41.466Z,29.37
2018-05-01T09:13:41.203Z,29.47
2018-05-01T09:14:41.509Z,29.27
2018-05-01T09:15:41.511Z,29.19
2018-05-01T09:16:41.548Z,29.28
2018-05-01T09:17:41.665Z,29.48
2018-05-01T09:18:41.589Z,29.28
2018-05-01T09:19:41.668Z,29.38
2018-05-01T09:20:41.623Z,29.77
2018-05-01T09:21:41.627Z,29.19
2018-05-01T09:22:41.669Z,29.58
2018-05-01T09:23:41.671Z,29.28
2018-05-01T09:24:41.417Z,28.91
2018-05-01T09:25:41.443Z,29.1
2018-05-01T09:26:41.732Z,28.91
2018-05-01T09:27:41.767Z,28.82
2018-05-01T09:28:41.786Z,28.72
2018-05-01T09:29:41.792Z,28.63
2018-05-01T09:30:41.818Z,28.44
2018-05-01T09:31:41.574Z,28.44
2018-05-01T09:32:41.875Z,28.34
2018-05-01T09:33:41.874Z,28.25
2018-05-01T09:34:41.903Z,27.59
2018-05-01T09:35:41.922Z,27.67
2018-05-01T09:36:41.951Z,27.95
2018-05-01T09:37:41.982Z,27.39
2018-05-01T09:38:41.975Z,27.3
2018-05-01T09:39:42.060Z,27.69
2018-05-01T09:40:41.750Z,27.2
2018-05-01T09:41:42.060Z,26.82
2018-05-01T09:42:42.080Z,27.3
2018-05-01T09:43:42.082Z,26.92
2018-05-01T09:44:42.154Z,26.72
2018-05-01T09:45:42.134Z,26.72
2018-05-01T09:46:42.164Z,26.83
2018-05-01T09:47:42.324Z,26.92
2018-05-01T09:48:42.203Z,27.02
2018-05-01T09:49:42.259Z,26.83
2018-05-01T09:50:42.234Z,26.83
2018-05-01T09:51:42.265Z,26.93
2018-05-01T09:52:42.036Z,26.25
2018-05-01T09:53:42.307Z,26.35
2018-05-01T09:54:42.379Z,26.25
2018-05-01T09:55:42.349Z,25.96
2018-05-01T09:56:42.374Z,25.58
2018-05-01T09:57:42.392Z,25.31
2018-05-01T09:58:42.411Z,25.49
2018-05-01T09:59:42.420Z,24.82
2018-05-01T10:00:42.432Z,25.31
2018-05-01T10:01:42.545Z,25.79
2018-05-01T10:02:42.204Z,25.49
2018-05-01T10:03:42.517Z,25.59
2018-05-01T10:04:42.521Z,25.31
2018-05-01T10:05:42.275Z,25.51
2018-05-01T10:06:42.579Z,25.49
2018-05-01T10:07:42.597Z,25.51
2018-05-01T10:08:42.615Z,25.42
2018-05-01T10:09:42.638Z,25.22
2018-05-01T10:10:42.670Z,25.22
2018-05-01T10:11:42.674Z,25.43
2018-05-01T10:12:42.711Z,25.52
2018-05-01T10:13:42.711Z,25.43
2018-05-01T10:14:42.733Z,25.04
2018-05-01T10:15:42.757Z,24.95
2018-05-01T10:16:42.505Z,24.85
2018-05-01T10:17:42.817Z,24.76
2018-05-01T10:18:42.817Z,24.08
2018-05-01T10:19:42.848Z,23.99
2018-05-01T10:20:42.599Z,24.19
2018-05-01T10:21:42.887Z,24.48
2018-05-01T10:22:42.916Z,24.19
2018-05-01T10:23:42.650Z,24.48
2018-05-01T10:24:43.012Z,23.8
2018-05-01T10:25:42.985Z,23.8
2018-05-01T10:26:43.014Z,23.61
2018-05-01T10:27:43.008Z,23.52
2018-05-01T10:28:43.155Z,24.1
2018-05-01T10:29:43.053Z,24.1
2018-05-01T10:30:43.082Z,23.91
2018-05-01T10:31:43.113Z,23.72
2018-05-01T10:32:43.141Z,23.62
2018-05-01T10:33:43.149Z,23.52
2018-05-01T10:34:42.891Z,23.62
2018-05-01T10:35:43.206Z,23.24
2018-05-01T10:36:42.951Z,23.24
2018-05-01T10:37:43.235Z,23.72
2018-05-01T10:38:43.021Z,23.82
2018-05-01T10:39:43.062Z,23.54
2018-05-01T10:40:43.310Z,23.54
2018-05-01T10:41:43.068Z,23.92
2018-05-01T10:42:43.076Z,24.02
2018-05-01T10:43:43.381Z,24.02
2018-05-01T10:44:43.455Z,23.63
2018-05-01T10:45:43.163Z,23.65
2018-05-01T10:46:43.160Z,23.45
2018-05-01T10:47:43.457Z,23.25
2018-05-01T10:48:43.495Z,23.16
2018-05-01T10:49:43.501Z,23.45
2018-05-01T10:50:43.533Z,22.77
2018-05-01T10:51:43.559Z,23.35
2018-05-01T10:52:43.580Z,23.07
2018-05-01T10:53:43.598Z,23.46
2018-05-01T10:54:43.737Z,22.78
2018-05-01T10:55:43.638Z,23.27
2018-05-01T10:56:43.658Z,23.17
2018-05-01T10:57:43.689Z,23.36
2018-05-01T10:58:43.803Z,23.46
2018-05-01T10:59:43.444Z,23.46
2018-05-01T11:00:43.890Z,23.27
2018-05-01T11:01:43.772Z,22.59
2018-05-01T11:02:43.801Z,22.98
2018-05-01T11:03:43.811Z,22.99
2018-05-01T11:04:43.614Z,22.7
2018-05-01T11:05:43.595Z,22.41
2018-05-01T11:06:43.880Z,22.7
2018-05-01T11:07:43.908Z,22.8
2018-05-01T11:08:43.948Z,23.18
2018-05-01T11:09:43.976Z,23.08
2018-05-01T11:10:43.969Z,22.89
2018-05-01T11:11:44.017Z,22.91
2018-05-01T11:12:44.032Z,23
2018-05-01T11:13:44.060Z,22.91
2018-05-01T11:14:44.067Z,22.91
2018-05-01T11:15:44.116Z,22.23
2018-05-01T11:16:44.131Z,22.13
2018-05-01T11:17:44.151Z,21.26
2018-05-01T11:18:44.178Z,21.75
2018-05-01T11:19:44.180Z,20.98
2018-05-01T11:20:44.260Z,21.37
2018-05-01T11:21:44.232Z,21.95
2018-05-01T11:22:43.975Z,22.05
2018-05-01T11:23:44.279Z,21.85
2018-05-01T11:24:44.507Z,21.85
2018-05-01T11:25:44.328Z,22.05
2018-05-01T11:26:44.344Z,21.85
2018-05-01T11:27:44.106Z,21.77
2018-05-01T11:28:44.391Z,22.06
2018-05-01T11:29:44.417Z,21.96
2018-05-01T11:30:44.452Z,22.16
2018-05-01T11:31:44.475Z,21.19
2018-05-01T11:32:44.483Z,20.7
2018-05-01T11:33:44.654Z,20.7
2018-05-01T11:34:44.295Z,21.38
2018-05-01T11:35:44.572Z,21.67
2018-05-01T11:36:44.598Z,20.9
2018-05-01T11:37:44.609Z,20.89
2018-05-01T11:38:44.655Z,21.3
2018-05-01T11:39:44.649Z,21.2
2018-05-01T11:40:44.679Z,20.62
2018-05-01T11:41:44.715Z,19.74
2018-05-01T11:42:44.455Z,20.32
2018-05-01T11:43:44.768Z,20.62
2018-05-01T11:44:44.785Z,19.84
2018-05-01T11:45:44.794Z,18.98
2018-05-01T11:46:44.541Z,19.56
2018-05-01T11:47:44.864Z,20.34
2018-05-01T11:48:44.989Z,20.62
2018-05-01T11:49:44.910Z,20.04
2018-05-01T11:50:44.653Z,20.25
2018-05-01T11:51:44.964Z,19.75
2018-05-01T11:52:44.989Z,19.67
2018-05-01T11:53:45.129Z,19.27
2018-05-01T11:54:45.030Z,19.28
2018-05-01T11:55:45.045Z,19.96
2018-05-01T11:56:44.793Z,20.34
2018-05-01T11:57:45.103Z,20.44
2018-05-01T11:58:45.119Z,21.22
2018-05-01T11:59:45.147Z,21.02
2018-05-01T12:00:45.188Z,20.44
2018-05-01T12:01:45.208Z,20.64
2018-05-01T12:02:45.399Z,20.73
2018-05-01T12:03:45.256Z,20.54
2018-05-01T12:04:45.276Z,20.55
2018-05-01T12:05:45.307Z,20.84
2018-05-01T12:06:45.316Z,20.94
2018-05-01T12:07:45.341Z,20.26
2018-05-01T12:08:45.085Z,20.36
2018-05-01T12:09:45.389Z,19.87
2018-05-01T12:10:45.433Z,19.68
2018-05-01T12:11:45.464Z,19.78
2018-05-01T12:12:45.481Z,19.68
2018-05-01T12:13:45.492Z,20.36
2018-05-01T12:14:45.519Z,20.55
2018-05-01T12:15:45.537Z,20.84
2018-05-01T12:16:45.593Z,20.74
2018-05-01T12:17:45.611Z,20.74
2018-05-01T12:18:45.629Z,20.94
2018-05-01T12:19:45.648Z,20.45
2018-05-01T12:20:45.677Z,20.16
2018-05-01T12:21:45.427Z,20.65
2018-05-01T12:22:45.436Z,21.12
2018-05-01T12:23:45.872Z,20.84
2018-05-01T12:24:45.780Z,20.74
2018-05-01T12:25:45.811Z,20.16
2018-05-01T12:26:45.848Z,20.44
2018-05-01T12:27:45.863Z,21.02
2018-05-01T12:28:45.879Z,21.12
2018-05-01T12:29:45.908Z,21.61
2018-05-01T12:30:45.925Z,21.61
2018-05-01T12:31:45.963Z,21.42
2018-05-01T12:32:45.691Z,21.8
2018-05-01T12:33:46.017Z,21.71
2018-05-01T12:34:46.016Z,21.91
2018-05-01T12:35:46.061Z,22.2
2018-05-01T12:36:46.337Z,22.1
2018-05-01T12:37:46.103Z,21.91
2018-05-01T12:38:46.134Z,22.2
2018-05-01T12:39:46.154Z,21.42
2018-05-01T12:40:46.175Z,21.71
2018-05-01T12:41:46.214Z,21.71
2018-05-01T12:42:46.245Z,21.51
2018-05-01T12:43:46.265Z,21.43
2018-05-01T12:44:46.272Z,21.42
2018-05-01T12:45:46.300Z,21.62
2018-05-01T12:46:46.328Z,21.62
2018-05-01T12:47:46.357Z,21.43
2018-05-01T12:48:46.381Z,21.04
2018-05-01T12:49:46.123Z,20.95
2018-05-01T12:50:46.441Z,21.14
2018-05-01T12:51:46.467Z,21.14
2018-05-01T12:52:46.491Z,20.96
2018-05-01T12:53:46.641Z,20.95
2018-05-01T12:54:46.548Z,20.76
2018-05-01T12:55:46.573Z,20.76
2018-05-01T12:56:46.600Z,20.86